createdAt,value
2023-01-20T00:01:09.756Z,1.80
2023-01-20T00:03:37.580Z,1.70
2023-01-20T00:06:04.587Z,1.80
2023-01-20T00:08:31.262Z,1.80
2023-01-20T00:10:58.281Z,1.80
2023-01-20T00:13:24.990Z,1.90
2023-01-20T00:15:51.737Z,1.80
2023-01-20T00:18:18.420Z,1.80
2023-01-20T00:20:45.448Z,1.80
2023-01-20T00:23:12.926Z,1.90
2023-01-20T00:25:39.626Z,1.90
2023-01-20T00:28:06.476Z,1.80
2023-01-20T00:30:33.788Z,1.80
2023-01-20T00:33:00.868Z,1.80
2023-01-20T00:35:27.516Z,1.80
2023-01-20T00:37:54.332Z,1.80
2023-01-20T00:40:21.470Z,1.80
2023-01-20T00:42:48.397Z,1.70
2023-01-20T00:45:15.869Z,1.70
2023-01-20T00:47:43.316Z,1.70
2023-01-20T00:50:10.714Z,1.70
2023-01-20T00:52:37.588Z,1.80
2023-01-20T00:55:04.801Z,1.80
2023-01-20T00:57:31.696Z,1.80
2023-01-20T00:59:58.701Z,1.80
2023-01-20T01:02:25.533Z,1.70
2023-01-20T01:04:52.457Z,1.80
2023-01-20T01:07:20.103Z,1.80
2023-01-20T01:09:47.051Z,1.80
2023-01-20T01:12:17.293Z,1.80
2023-01-20T01:14:44.546Z,1.90
2023-01-20T01:17:11.694Z,1.90
2023-01-20T01:19:38.536Z,1.80
2023-01-20T01:22:05.822Z,1.80
2023-01-20T01:24:32.675Z,1.90
2023-01-20T01:26:59.920Z,1.90
2023-01-20T01:29:29.791Z,1.90
2023-01-20T01:31:56.974Z,1.80
2023-01-20T01:34:24.271Z,1.80
2023-01-20T01:36:51.135Z,1.70
2023-01-20T01:39:18.119Z,1.70
2023-01-20T01:41:44.968Z,1.80
2023-01-20T01:44:13.747Z,1.80
2023-01-20T01:46:41.849Z,1.80
2023-01-20T01:49:30.789Z,1.90
2023-01-20T01:52:09.861Z,1.80
2023-01-20T01:54:40.260Z,1.90
2023-01-20T01:57:07.890Z,2.00
2023-01-20T01:59:37.288Z,1.80
2023-01-20T02:02:04.245Z,1.80
2023-01-20T02:04:33.477Z,1.80
2023-01-20T02:07:12.716Z,1.80
2023-01-20T02:09:41.153Z,1.80
2023-01-20T02:12:18.709Z,1.80
2023-01-20T02:14:56.778Z,1.80
2023-01-20T02:17:49.384Z,1.80
2023-01-20T02:20:53.856Z,1.80
2023-01-20T02:23:32.812Z,1.80
2023-01-20T02:26:39.671Z,1.80
2023-01-20T02:29:12.349Z,1.70
2023-01-20T02:32:07.305Z,1.80
2023-01-20T02:34:50.844Z,1.80
2023-01-20T02:37:22.255Z,1.80
2023-01-20T02:40:03.797Z,1.70
2023-01-20T02:42:42.956Z,1.80
2023-01-20T02:45:22.927Z,1.80
2023-01-20T02:48:04.286Z,1.80
2023-01-20T02:51:08.135Z,1.70
2023-01-20T02:53:46.961Z,1.70
2023-01-20T02:56:15.164Z,1.70
2023-01-20T02:58:59.441Z,1.70
2023-01-20T03:01:38.183Z,1.70
2023-01-20T03:04:09.555Z,1.80
2023-01-20T03:06:41.008Z,1.80
2023-01-20T03:09:13.235Z,1.80
2023-01-20T03:11:46.601Z,1.80
2023-01-20T03:14:15.071Z,1.70
2023-01-20T03:16:42.780Z,1.70
2023-01-20T03:19:10.673Z,1.70
2023-01-20T03:21:37.910Z,1.70
2023-01-20T03:24:07.413Z,1.70
2023-01-20T03:26:34.786Z,1.70
2023-01-20T03:29:06.396Z,1.70
2023-01-20T03:31:46.134Z,1.80
2023-01-20T03:34:17.661Z,1.70
2023-01-20T03:36:46.278Z,1.80
2023-01-20T03:39:13.655Z,1.80
2023-01-20T03:41:55.541Z,1.80
2023-01-20T03:44:47.508Z,1.80
2023-01-20T03:47:36.039Z,1.90
2023-01-20T03:50:05.539Z,1.80
2023-01-20T03:52:47.279Z,1.80
2023-01-20T03:55:27.348Z,1.70
2023-01-20T03:58:04.749Z,1.80
2023-01-20T04:00:37.965Z,1.80
2023-01-20T04:03:12.856Z,1.80
2023-01-20T04:05:41.643Z,1.80
2023-01-20T04:08:11.130Z,1.80
2023-01-20T04:10:42.328Z,1.80
2023-01-20T04:13:09.500Z,1.80
2023-01-20T04:15:41.150Z,1.80
2023-01-20T04:18:19.402Z,1.80
2023-01-20T04:20:50.539Z,1.70
2023-01-20T04:23:20.399Z,1.70
2023-01-20T04:25:47.303Z,1.70
2023-01-20T04:28:14.198Z,1.70
2023-01-20T04:30:41.245Z,1.80
2023-01-20T04:33:08.530Z,1.80
2023-01-20T04:35:35.756Z,1.80
2023-01-20T04:38:02.582Z,1.80
2023-01-20T04:40:29.493Z,1.80
2023-01-20T04:42:56.575Z,1.80
2023-01-20T04:45:23.638Z,1.80
2023-01-20T04:47:50.480Z,1.80
2023-01-20T04:50:17.625Z,1.80
2023-01-20T04:52:44.892Z,1.70
2023-01-20T04:55:13.330Z,1.70
2023-01-20T04:57:40.900Z,1.70
2023-01-20T05:00:11.120Z,1.70
2023-01-20T05:02:38.454Z,1.70
2023-01-20T05:05:05.638Z,1.80
2023-01-20T05:07:32.567Z,1.80
2023-01-20T05:09:59.359Z,1.80
2023-01-20T05:12:26.238Z,1.80
2023-01-20T05:14:53.467Z,1.80
2023-01-20T05:17:20.779Z,1.80
2023-01-20T05:19:47.580Z,1.80
2023-01-20T05:22:14.848Z,1.80
2023-01-20T05:24:42.180Z,1.80
2023-01-20T05:27:09.104Z,1.70
2023-01-20T05:29:36.116Z,1.80
2023-01-20T05:32:03.084Z,1.80
2023-01-20T05:34:30.332Z,1.80
2023-01-20T05:36:57.244Z,1.80
2023-01-20T05:39:25.936Z,1.80
2023-01-20T05:41:52.775Z,1.80
2023-01-20T05:44:19.992Z,1.80
2023-01-20T05:46:46.943Z,1.80
2023-01-20T05:49:13.959Z,1.80
2023-01-20T05:51:40.992Z,1.80
2023-01-20T05:54:07.796Z,1.70
2023-01-20T05:56:34.588Z,1.70
2023-01-20T05:59:02.155Z,1.80
2023-01-20T06:01:29.135Z,1.80
2023-01-20T06:03:56.120Z,1.80
2023-01-20T06:06:23.070Z,1.70
2023-01-20T06:08:53.260Z,1.70
2023-01-20T06:11:20.849Z,1.70
2023-01-20T06:13:48.600Z,1.70
2023-01-20T06:16:17.972Z,1.70
2023-01-20T06:18:44.983Z,1.70
2023-01-20T06:21:12.487Z,1.70
2023-01-20T06:23:39.338Z,1.70
2023-01-20T06:26:08.671Z,1.70
2023-01-20T06:28:35.887Z,1.70
2023-01-20T06:31:08.663Z,1.60
2023-01-20T06:33:36.220Z,1.60
2023-01-20T06:36:07.156Z,1.70
2023-01-20T06:38:35.932Z,1.60
2023-01-20T06:41:08.781Z,1.60
2023-01-20T06:43:35.873Z,1.60
2023-01-20T06:46:06.897Z,1.70
2023-01-20T06:48:35.138Z,1.70
2023-01-20T06:51:07.911Z,1.70
2023-01-20T06:53:34.676Z,1.60
2023-01-20T06:56:02.051Z,1.60
2023-01-20T06:58:31.040Z,1.70
2023-01-20T07:01:03.860Z,1.60
2023-01-20T07:03:31.068Z,1.60
2023-01-20T07:06:07.359Z,1.60
2023-01-20T07:08:33.992Z,1.60
2023-01-20T07:11:00.606Z,1.60
2023-01-20T07:13:28.564Z,1.60
2023-01-20T07:15:55.172Z,1.50
2023-01-20T07:18:21.821Z,1.60
2023-01-20T07:20:53.757Z,1.50
2023-01-20T07:23:20.366Z,1.40
2023-01-20T07:25:46.969Z,1.50
2023-01-20T07:28:13.657Z,1.60
2023-01-20T07:30:40.592Z,1.50
2023-01-20T07:33:07.272Z,1.60
2023-01-20T07:35:33.936Z,1.50
2023-01-20T07:38:00.568Z,1.50
2023-01-20T07:40:27.184Z,1.60
2023-01-20T07:42:54.274Z,1.60
2023-01-20T07:45:21.225Z,1.60
2023-01-20T07:47:47.877Z,1.80
2023-01-20T07:50:14.960Z,1.70
2023-01-20T07:52:42.398Z,1.70
2023-01-20T07:55:09.404Z,1.70
2023-01-20T07:57:36.017Z,1.70
2023-01-20T08:00:02.911Z,1.70
2023-01-20T08:02:29.875Z,1.70
2023-01-20T08:04:56.581Z,1.70
2023-01-20T08:07:23.582Z,1.80
2023-01-20T08:09:50.197Z,1.70
2023-01-20T08:12:16.856Z,1.60
2023-01-20T08:14:43.690Z,1.60
2023-01-20T08:17:10.654Z,1.60
2023-01-20T08:19:37.325Z,1.60
2023-01-20T08:22:03.962Z,1.70
2023-01-20T08:24:30.813Z,1.70
2023-01-20T08:26:57.485Z,1.70
2023-01-20T08:29:24.176Z,1.70
2023-01-20T08:31:50.919Z,1.70
2023-01-20T08:34:18.722Z,1.80
2023-01-20T08:36:45.550Z,1.80
2023-01-20T08:39:14.793Z,1.80
2023-01-20T08:41:45.225Z,1.80
2023-01-20T08:44:11.998Z,1.80
2023-01-20T08:46:41.647Z,1.80
2023-01-20T08:49:10.505Z,1.80
2023-01-20T08:51:37.680Z,1.80
2023-01-20T08:54:04.696Z,1.90
2023-01-20T08:56:31.904Z,1.90
2023-01-20T08:58:59.379Z,1.90
2023-01-20T09:01:29.318Z,1.90
2023-01-20T09:04:05.436Z,1.90
2023-01-20T09:06:45.377Z,2.00
2023-01-20T09:09:13.958Z,1.90
2023-01-20T09:11:41.100Z,2.00
2023-01-20T09:14:07.746Z,2.00
2023-01-20T09:16:35.310Z,1.90
2023-01-20T09:19:03.409Z,1.80
2023-01-20T09:21:30.323Z,1.80
2023-01-20T09:23:57.290Z,1.90
2023-01-20T09:26:35.221Z,1.80
2023-01-20T09:29:09.586Z,1.90
2023-01-20T09:31:46.050Z,2.00
2023-01-20T09:34:19.298Z,2.00
2023-01-20T09:36:49.752Z,2.10
2023-01-20T09:39:36.186Z,2.20
2023-01-20T09:42:44.618Z,2.10
2023-01-20T09:45:51.063Z,2.20
2023-01-20T09:48:54.560Z,2.20
2023-01-20T09:51:48.866Z,2.30
2023-01-20T09:54:28.725Z,2.20
2023-01-20T09:57:00.028Z,2.20
2023-01-20T10:00:01.954Z,2.40
2023-01-20T10:02:34.517Z,2.30
2023-01-20T10:05:10.720Z,2.40
2023-01-20T10:07:51.014Z,2.40
2023-01-20T10:10:28.733Z,2.50
2023-01-20T10:13:14.313Z,2.60
2023-01-20T10:15:47.321Z,2.60
2023-01-20T10:18:52.153Z,2.70
2023-01-20T10:21:54.917Z,2.70
2023-01-20T10:24:52.485Z,2.70
2023-01-20T10:27:19.506Z,2.70
2023-01-20T10:29:51.956Z,2.70
2023-01-20T10:32:25.249Z,2.70
2023-01-20T10:34:56.736Z,2.80
2023-01-20T10:37:24.633Z,2.80
2023-01-20T10:40:24.239Z,2.80
2023-01-20T10:42:57.813Z,2.80
2023-01-20T10:45:52.851Z,2.90
2023-01-20T10:48:42.191Z,3.00
2023-01-20T10:51:18.395Z,2.90
2023-01-20T10:54:01.286Z,3.00
2023-01-20T10:56:53.638Z,3.00
2023-01-20T10:59:31.152Z,2.90
2023-01-20T11:02:30.935Z,2.90
2023-01-20T11:05:01.074Z,3.00
2023-01-20T11:07:31.479Z,3.00
2023-01-20T11:10:10.093Z,3.10
2023-01-20T11:12:41.641Z,3.10
2023-01-20T11:15:31.273Z,3.10
2023-01-20T11:18:16.961Z,3.20
2023-01-20T11:21:04.125Z,3.20
2023-01-20T11:23:38.490Z,3.20
2023-01-20T11:26:28.495Z,3.20
2023-01-20T11:28:58.645Z,3.20
2023-01-20T11:31:45.145Z,3.20
2023-01-20T11:34:29.571Z,3.30
2023-01-20T11:37:26.758Z,3.30
2023-01-20T11:40:00.217Z,3.30
2023-01-20T11:42:30.710Z,3.30
2023-01-20T11:45:20.353Z,3.40
2023-01-20T11:47:58.949Z,3.40
2023-01-20T11:50:34.382Z,3.40
2023-01-20T11:53:21.886Z,3.50
2023-01-20T11:55:57.284Z,3.50
2023-01-20T11:58:33.024Z,3.50
2023-01-20T12:01:07.995Z,3.50
2023-01-20T12:03:43.788Z,3.50
2023-01-20T12:06:18.187Z,3.60
2023-01-20T12:09:01.970Z,3.60
2023-01-20T12:11:37.253Z,3.70
2023-01-20T12:14:31.435Z,3.70
2023-01-20T12:17:18.025Z,3.80
2023-01-20T12:19:51.087Z,3.90
2023-01-20T12:22:44.566Z,3.90
2023-01-20T12:25:20.877Z,3.90
2023-01-20T12:27:54.665Z,3.90
2023-01-20T12:30:27.491Z,4.00
2023-01-20T12:32:54.655Z,4.00
2023-01-20T12:35:24.626Z,4.00
2023-01-20T12:37:57.343Z,4.00
2023-01-20T12:40:42.132Z,4.00
2023-01-20T12:43:31.846Z,3.90
2023-01-20T12:46:23.886Z,3.90
2023-01-20T12:49:05.896Z,3.90
2023-01-20T12:51:54.256Z,3.90
2023-01-20T12:54:42.959Z,3.90
2023-01-20T12:57:43.777Z,3.80
2023-01-20T13:00:23.775Z,3.80
2023-01-20T13:02:50.601Z,3.90
2023-01-20T13:05:40.445Z,3.90
2023-01-20T13:08:14.835Z,4.00
2023-01-20T13:11:04.635Z,4.00
2023-01-20T13:14:00.981Z,4.10
2023-01-20T13:16:56.108Z,4.10
2023-01-20T13:19:33.373Z,4.10
2023-01-20T13:22:13.189Z,4.10
2023-01-20T13:24:44.827Z,4.10
2023-01-20T13:27:13.936Z,4.00
2023-01-20T13:29:47.958Z,3.90
2023-01-20T13:32:33.569Z,3.90
2023-01-20T13:35:28.696Z,3.80
2023-01-20T13:37:57.962Z,3.90
2023-01-20T13:40:37.078Z,3.90
2023-01-20T13:43:25.628Z,3.80
2023-01-20T13:46:15.217Z,3.90
2023-01-20T13:49:20.519Z,3.90
2023-01-20T13:51:48.165Z,3.90
2023-01-20T13:54:45.946Z,3.90
2023-01-20T13:57:37.574Z,3.80
2023-01-20T14:00:12.807Z,3.80
2023-01-20T14:02:39.908Z,3.80
2023-01-20T14:05:20.614Z,3.80
2023-01-20T14:07:47.686Z,3.80
2023-01-20T14:10:15.265Z,3.80
2023-01-20T14:12:42.467Z,3.80
2023-01-20T14:15:32.500Z,3.80
2023-01-20T14:18:00.471Z,3.80
2023-01-20T14:20:28.831Z,3.80
2023-01-20T14:22:56.016Z,3.70
2023-01-20T14:25:26.920Z,3.70
2023-01-20T14:27:53.895Z,3.70
2023-01-20T14:30:28.146Z,3.70
2023-01-20T14:32:55.056Z,3.70
2023-01-20T14:35:27.522Z,3.70
2023-01-20T14:37:54.992Z,3.60
2023-01-20T14:40:26.934Z,3.60
2023-01-20T14:43:01.073Z,3.70
2023-01-20T14:45:30.718Z,3.70
2023-01-20T14:47:59.956Z,3.70
2023-01-20T14:50:27.421Z,3.70
2023-01-20T14:52:54.537Z,3.60
2023-01-20T14:55:43.463Z,3.60
2023-01-20T14:58:17.303Z,3.60
2023-01-20T15:00:46.634Z,3.60
2023-01-20T15:03:21.648Z,3.70
2023-01-20T15:05:56.496Z,3.70
2023-01-20T15:08:26.836Z,3.70
2023-01-20T15:11:18.851Z,3.60
2023-01-20T15:13:57.612Z,3.60
2023-01-20T15:16:27.019Z,3.60
2023-01-20T15:19:29.813Z,3.60
2023-01-20T15:22:16.322Z,3.60
2023-01-20T15:24:47.353Z,3.60
2023-01-20T15:27:34.254Z,3.60
2023-01-20T15:30:04.350Z,3.60
2023-01-20T15:32:31.496Z,3.60
2023-01-20T15:34:58.840Z,3.60
2023-01-20T15:37:25.741Z,3.60
2023-01-20T15:39:53.982Z,3.50
2023-01-20T15:42:20.953Z,3.50
2023-01-20T15:44:48.063Z,3.50
2023-01-20T15:47:30.953Z,3.50
2023-01-20T15:49:58.207Z,3.50
2023-01-20T15:52:25.623Z,3.40
2023-01-20T15:54:52.727Z,3.30
2023-01-20T15:57:19.734Z,3.40
2023-01-20T15:59:47.787Z,3.30
2023-01-20T16:02:21.150Z,3.40
2023-01-20T16:04:48.113Z,3.30
2023-01-20T16:07:17.576Z,3.30
2023-01-20T16:09:46.176Z,3.40
2023-01-20T16:12:14.335Z,3.40
2023-01-20T16:14:42.563Z,3.40
2023-01-20T16:17:14.940Z,3.40
2023-01-20T16:19:42.512Z,3.30
2023-01-20T16:22:10.554Z,3.30
2023-01-20T16:24:38.819Z,3.40
2023-01-20T16:27:20.054Z,3.30
2023-01-20T16:29:47.638Z,3.30
2023-01-20T16:32:17.745Z,3.30
2023-01-20T16:34:46.672Z,3.40
2023-01-20T16:37:14.770Z,3.30
2023-01-20T16:39:41.840Z,3.30
2023-01-20T16:42:16.197Z,3.40
2023-01-20T16:44:43.557Z,3.40
2023-01-20T16:47:10.454Z,3.30
2023-01-20T16:49:38.637Z,3.20
2023-01-20T16:52:05.788Z,3.30
2023-01-20T16:54:32.846Z,3.30
2023-01-20T16:56:59.746Z,3.10
2023-01-20T16:59:26.628Z,3.00
2023-01-20T17:01:53.677Z,3.00
2023-01-20T17:04:20.597Z,3.00
2023-01-20T17:06:47.441Z,2.90
2023-01-20T17:09:14.482Z,2.70
2023-01-20T17:11:41.826Z,2.60
2023-01-20T17:14:11.178Z,2.50
2023-01-20T17:16:38.921Z,2.40
2023-01-20T17:19:06.245Z,2.40
2023-01-20T17:21:39.367Z,2.30
2023-01-20T17:24:07.331Z,2.20
2023-01-20T17:26:34.610Z,2.20
2023-01-20T17:29:04.666Z,2.20
2023-01-20T17:31:35.612Z,2.10
2023-01-20T17:34:04.156Z,2.00
2023-01-20T17:36:34.484Z,2.10
2023-01-20T17:39:02.697Z,2.00
2023-01-20T17:41:29.572Z,1.90
2023-01-20T17:43:56.658Z,1.80
2023-01-20T17:46:27.685Z,1.60
2023-01-20T17:48:57.469Z,1.50
2023-01-20T17:51:27.169Z,1.40
2023-01-20T17:53:54.300Z,1.40
2023-01-20T17:56:22.549Z,1.40
2023-01-20T17:58:50.969Z,1.30
2023-01-20T18:01:26.757Z,1.20
2023-01-20T18:03:56.001Z,1.20
2023-01-20T18:06:24.705Z,1.10
2023-01-20T18:08:53.925Z,1.10
2023-01-20T18:11:22.957Z,1.00
2023-01-20T18:13:52.532Z,1.00
2023-01-20T18:16:21.702Z,0.90
2023-01-20T18:18:49.868Z,0.90
2023-01-20T18:21:22.518Z,0.80
2023-01-20T18:23:50.769Z,0.90
2023-01-20T18:26:20.793Z,1.10
2023-01-20T18:28:55.642Z,1.10
2023-01-20T18:31:24.673Z,1.10
2023-01-20T18:33:57.370Z,1.00
2023-01-20T18:36:33.157Z,1.00
2023-01-20T18:39:10.170Z,1.10
2023-01-20T18:41:37.843Z,1.10
2023-01-20T18:44:05.978Z,1.00
2023-01-20T18:46:33.261Z,0.90
2023-01-20T18:49:00.860Z,0.90
2023-01-20T18:51:29.914Z,0.80
2023-01-20T18:54:06.186Z,1.00
2023-01-20T18:56:34.256Z,1.00
2023-01-20T18:59:02.459Z,1.00
2023-01-20T19:01:34.458Z,0.90
2023-01-20T19:04:03.281Z,0.90
2023-01-20T19:06:34.411Z,0.90
2023-01-20T19:09:01.598Z,0.80
2023-01-20T19:11:34.587Z,0.70
2023-01-20T19:14:02.121Z,0.70
2023-01-20T19:16:36.369Z,0.60
2023-01-20T19:19:04.687Z,0.60
2023-01-20T19:21:33.143Z,0.60
2023-01-20T19:24:03.145Z,0.60
2023-01-20T19:26:30.033Z,0.70
2023-01-20T19:29:02.759Z,0.60
2023-01-20T19:31:31.494Z,0.60
2023-01-20T19:33:59.060Z,0.60
2023-01-20T19:36:26.384Z,0.70
2023-01-20T19:38:53.571Z,0.70
2023-01-20T19:41:28.431Z,0.60
2023-01-20T19:44:00.222Z,0.60
2023-01-20T19:46:29.545Z,0.60
2023-01-20T19:48:58.206Z,0.60
2023-01-20T19:51:26.065Z,0.60
2023-01-20T19:53:58.210Z,0.60
2023-01-20T19:56:27.871Z,0.60
2023-01-20T19:58:55.506Z,0.60
2023-01-20T20:01:27.704Z,0.60
2023-01-20T20:03:55.828Z,0.50
2023-01-20T20:06:27.431Z,0.40
2023-01-20T20:08:57.540Z,0.40
2023-01-20T20:11:24.476Z,0.40
2023-01-20T20:13:55.920Z,0.40
2023-01-20T20:16:23.823Z,0.30
2023-01-20T20:18:52.142Z,0.40
2023-01-20T20:21:19.643Z,0.40
2023-01-20T20:23:54.675Z,0.40
2023-01-20T20:26:24.000Z,0.30
2023-01-20T20:28:51.555Z,0.40
2023-01-20T20:31:19.291Z,0.40
2023-01-20T20:33:47.352Z,0.40
2023-01-20T20:36:15.353Z,0.40
2023-01-20T20:38:42.285Z,0.40
2023-01-20T20:41:10.064Z,0.40
2023-01-20T20:43:38.466Z,0.40
2023-01-20T20:46:06.895Z,0.50
2023-01-20T20:48:34.548Z,0.50
2023-01-20T20:51:19.934Z,0.50
2023-01-20T20:53:46.862Z,0.60
2023-01-20T20:56:15.855Z,0.50
2023-01-20T20:59:00.109Z,0.60
2023-01-20T21:01:28.815Z,0.60
2023-01-20T21:03:57.808Z,0.60
2023-01-20T21:06:25.311Z,0.60
2023-01-20T21:08:52.846Z,0.50
2023-01-20T21:11:24.086Z,0.50
2023-01-20T21:13:52.075Z,0.60
2023-01-20T21:16:22.505Z,0.60
2023-01-20T21:18:51.871Z,0.70
2023-01-20T21:21:21.919Z,0.50
2023-01-20T21:23:54.631Z,0.50
2023-01-20T21:26:23.158Z,0.40
2023-01-20T21:28:50.382Z,0.40
2023-01-20T21:31:21.350Z,0.40
2023-01-20T21:33:57.239Z,0.30
2023-01-20T21:36:25.286Z,0.30
2023-01-20T21:38:52.621Z,0.10
2023-01-20T21:41:20.067Z,0.00
2023-01-20T21:44:07.158Z,-0.10
2023-01-20T21:46:38.932Z,-0.30
2023-01-20T21:49:28.556Z,-0.40
2023-01-20T21:52:15.307Z,-0.40
2023-01-20T21:54:44.985Z,-0.40
2023-01-20T21:57:12.294Z,-0.50
2023-01-20T21:59:39.674Z,-0.50
2023-01-20T22:02:07.903Z,-0.60
2023-01-20T22:04:35.364Z,-0.60
2023-01-20T22:07:02.648Z,-0.60
2023-01-20T22:09:29.880Z,-0.60
2023-01-20T22:11:56.819Z,-0.70
2023-01-20T22:14:23.826Z,-0.70
2023-01-20T22:16:50.956Z,-0.70
2023-01-20T22:19:18.085Z,-0.80
2023-01-20T22:21:45.082Z,-0.90
2023-01-20T22:24:12.555Z,-1.00
2023-01-20T22:26:39.764Z,-1.00
2023-01-20T22:29:06.708Z,-1.00
2023-01-20T22:31:34.371Z,-1.10
2023-01-20T22:34:06.358Z,-1.10
2023-01-20T22:36:34.201Z,-1.10
2023-01-20T22:39:01.674Z,-1.10
2023-01-20T22:41:28.909Z,-1.10
2023-01-20T22:43:56.285Z,-1.20
2023-01-20T22:46:25.992Z,-1.20
2023-01-20T22:48:53.968Z,-1.20
2023-01-20T22:51:23.454Z,-1.10
2023-01-20T22:53:52.354Z,-1.10
2023-01-20T22:56:21.682Z,-1.10
2023-01-20T22:58:48.623Z,-1.10
2023-01-20T23:01:21.274Z,-1.10
2023-01-20T23:03:49.132Z,-1.10
2023-01-20T23:06:16.087Z,-1.10
2023-01-20T23:08:43.040Z,-1.20
2023-01-20T23:11:13.183Z,-1.30
2023-01-20T23:13:41.095Z,-1.30
2023-01-20T23:16:13.049Z,-1.40
2023-01-20T23:18:40.673Z,-1.40
2023-01-20T23:21:07.798Z,-1.40
2023-01-20T23:23:34.942Z,-1.50
2023-01-20T23:26:17.276Z,-1.50
2023-01-20T23:28:46.571Z,-1.50
2023-01-20T23:31:15.664Z,-1.50
2023-01-20T23:33:44.254Z,-1.60
2023-01-20T23:36:16.359Z,-1.60
2023-01-20T23:38:44.473Z,-1.60
2023-01-20T23:41:12.880Z,-1.70
2023-01-20T23:43:41.414Z,-1.70
2023-01-20T23:46:09.475Z,-1.70
2023-01-20T23:48:38.120Z,-1.70
2023-01-20T23:51:06.543Z,-1.80
2023-01-20T23:53:36.916Z,-1.80
2023-01-20T23:56:06.878Z,-1.80
2023-01-20T23:58:34.061Z,-1.80
